createdAt,value
2023-03-04T00:00:09.208Z,74.51
2023-03-04T00:02:38.475Z,74.36
2023-03-04T00:05:07.053Z,74.38
2023-03-04T00:07:34.872Z,74.65
2023-03-04T00:10:04.180Z,74.61
2023-03-04T00:12:36.229Z,74.82
2023-03-04T00:15:05.428Z,74.61
2023-03-04T00:17:33.199Z,75.05
2023-03-04T00:20:02.482Z,74.77
2023-03-04T00:22:30.224Z,74.69
2023-03-04T00:24:57.993Z,74.50
2023-03-04T00:27:25.791Z,74.77
2023-03-04T00:29:53.535Z,74.69
2023-03-04T00:32:21.444Z,74.31
2023-03-04T00:34:49.436Z,74.59
2023-03-04T00:37:18.621Z,74.36
2023-03-04T00:39:46.513Z,74.20
2023-03-04T00:42:14.284Z,74.31
2023-03-04T00:44:42.073Z,74.65
2023-03-04T00:47:10.025Z,74.20
2023-03-04T00:49:37.952Z,74.27
2023-03-04T00:52:05.719Z,74.43
2023-03-04T00:54:35.103Z,74.34
2023-03-04T00:57:02.838Z,74.52
2023-03-04T00:59:30.777Z,74.57
2023-03-04T01:01:58.563Z,74.52
2023-03-04T01:04:26.468Z,74.69
2023-03-04T01:06:54.639Z,74.58
2023-03-04T01:09:22.404Z,74.59
2023-03-04T01:11:51.681Z,74.71
2023-03-04T01:14:19.761Z,74.89
2023-03-04T01:16:47.640Z,74.75
2023-03-04T01:19:15.603Z,75.11
2023-03-04T01:21:43.511Z,75.10
2023-03-04T01:24:11.263Z,74.97
2023-03-04T01:26:39.140Z,74.73
2023-03-04T01:29:08.395Z,75.01
2023-03-04T01:31:36.169Z,74.94
2023-03-04T01:34:03.990Z,74.95
2023-03-04T01:36:31.775Z,74.90
2023-03-04T01:38:59.577Z,74.65
2023-03-04T01:41:28.181Z,74.85
2023-03-04T01:43:57.100Z,74.92
2023-03-04T01:46:26.595Z,75.02
2023-03-04T01:48:54.588Z,75.00
2023-03-04T01:51:22.574Z,75.18
2023-03-04T01:53:53.251Z,75.43
2023-03-04T01:56:24.154Z,75.52
2023-03-04T01:59:10.766Z,75.66
2023-03-04T02:01:41.546Z,76.10
2023-03-04T02:04:09.556Z,75.78
2023-03-04T02:06:38.344Z,76.09
2023-03-04T02:09:06.889Z,75.98
2023-03-04T02:11:34.945Z,76.36
2023-03-04T02:14:02.852Z,76.31
2023-03-04T02:16:30.638Z,76.68
2023-03-04T02:19:00.220Z,76.82
2023-03-04T02:21:29.217Z,76.89
2023-03-04T02:24:03.476Z,76.99
2023-03-04T02:26:33.779Z,77.19
2023-03-04T02:29:02.362Z,77.47
2023-03-04T02:31:33.660Z,77.63
2023-03-04T02:34:04.041Z,77.77
2023-03-04T02:36:32.448Z,77.70
2023-03-04T02:39:03.887Z,77.94
2023-03-04T02:41:33.264Z,78.07
2023-03-04T02:44:01.068Z,78.54
2023-03-04T02:46:28.877Z,78.14
2023-03-04T02:48:56.732Z,78.04
2023-03-04T02:51:24.515Z,78.14
2023-03-04T02:53:52.380Z,78.16
2023-03-04T02:56:20.143Z,77.61
2023-03-04T02:58:49.300Z,76.86
2023-03-04T03:01:17.092Z,77.07
2023-03-04T03:03:44.932Z,77.04
2023-03-04T03:06:12.870Z,76.75
2023-03-04T03:08:40.618Z,76.65
2023-03-04T03:11:09.404Z,76.75
2023-03-04T03:13:37.274Z,76.92
2023-03-04T03:16:07.038Z,76.98
2023-03-04T03:18:34.866Z,77.36
2023-03-04T03:21:02.628Z,77.46
2023-03-04T03:23:30.408Z,77.62
2023-03-04T03:25:58.350Z,77.55
2023-03-04T03:28:26.142Z,77.71
2023-03-04T03:30:53.937Z,77.56
2023-03-04T03:33:23.136Z,78.23
2023-03-04T03:35:51.065Z,78.02
2023-03-04T03:38:18.933Z,77.91
2023-03-04T03:40:46.819Z,77.61
2023-03-04T03:43:14.884Z,77.63
2023-03-04T03:45:42.662Z,77.10
2023-03-04T03:48:10.536Z,76.66
2023-03-04T03:50:39.674Z,76.64
2023-03-04T03:53:07.576Z,76.36
2023-03-04T03:55:35.327Z,76.27
2023-03-04T03:58:03.068Z,76.40
2023-03-04T04:00:30.897Z,76.40
2023-03-04T04:02:59.801Z,75.80
2023-03-04T04:05:27.635Z,75.41
2023-03-04T04:07:57.240Z,75.39
2023-03-04T04:10:25.146Z,75.29
2023-03-04T04:12:53.349Z,75.17
2023-03-04T04:15:21.393Z,75.10
2023-03-04T04:17:49.252Z,75.01
2023-03-04T04:20:17.311Z,74.94
2023-03-04T04:22:45.075Z,75.07
2023-03-04T04:25:14.300Z,75.52
2023-03-04T04:27:42.142Z,75.49
2023-03-04T04:30:11.308Z,75.42
2023-03-04T04:32:39.215Z,75.56
2023-03-04T04:35:08.259Z,75.73
2023-03-04T04:37:36.050Z,75.58
2023-03-04T04:40:05.502Z,75.77
2023-03-04T04:42:34.668Z,75.83
2023-03-04T04:45:02.388Z,75.71
2023-03-04T04:47:30.262Z,75.70
2023-03-04T04:49:58.066Z,75.80
2023-03-04T04:52:25.849Z,75.42
2023-03-04T04:54:53.788Z,75.56
2023-03-04T04:57:21.588Z,75.43
2023-03-04T04:59:51.111Z,75.28
2023-03-04T05:02:18.955Z,75.47
2023-03-04T05:04:46.748Z,75.38
2023-03-04T05:07:14.596Z,75.14
2023-03-04T05:09:42.393Z,74.98
2023-03-04T05:12:10.237Z,75.01
2023-03-04T05:14:38.566Z,75.06
2023-03-04T05:17:07.746Z,74.99
2023-03-04T05:19:35.636Z,74.88
2023-03-04T05:22:03.426Z,74.97
2023-03-04T05:24:31.222Z,74.75
2023-03-04T05:26:59.196Z,74.85
2023-03-04T05:29:27.052Z,74.64
2023-03-04T05:31:55.042Z,74.75
2023-03-04T05:34:24.216Z,74.73
2023-03-04T05:36:52.123Z,74.36
2023-03-04T05:39:19.915Z,74.60
2023-03-04T05:41:47.702Z,74.75
2023-03-04T05:44:15.459Z,74.67
2023-03-04T05:46:43.259Z,74.52
2023-03-04T05:49:11.137Z,74.31
2023-03-04T05:51:40.307Z,74.32
2023-03-04T05:54:08.129Z,74.17
2023-03-04T05:56:36.005Z,74.09
2023-03-04T05:59:03.758Z,73.98
2023-03-04T06:01:31.610Z,74.02
2023-03-04T06:03:59.560Z,74.09
2023-03-04T06:06:27.390Z,73.72
2023-03-04T06:08:56.528Z,73.48
2023-03-04T06:11:24.412Z,73.79
2023-03-04T06:13:52.246Z,73.81
2023-03-04T06:16:20.532Z,73.87
2023-03-04T06:18:48.457Z,73.55
2023-03-04T06:21:16.333Z,73.75
2023-03-04T06:23:45.138Z,73.41
2023-03-04T06:26:15.760Z,73.50
2023-03-04T06:28:44.222Z,73.59
2023-03-04T06:31:21.717Z,73.62
2023-03-04T06:33:49.675Z,73.62
2023-03-04T06:36:17.702Z,73.17
2023-03-04T06:38:45.454Z,73.48
2023-03-04T06:41:14.911Z,73.36
2023-03-04T06:43:42.940Z,72.81
2023-03-04T06:46:10.848Z,73.01
2023-03-04T06:48:38.651Z,72.91
2023-03-04T06:51:07.911Z,72.71
2023-03-04T06:53:36.052Z,72.62
2023-03-04T06:56:03.865Z,72.39
2023-03-04T06:58:33.531Z,72.44
2023-03-04T07:01:12.010Z,72.75
2023-03-04T07:03:40.976Z,72.86
2023-03-04T07:06:10.299Z,72.57
2023-03-04T07:08:38.327Z,72.77
2023-03-04T07:11:06.683Z,72.59
2023-03-04T07:13:38.420Z,72.79
2023-03-04T07:16:07.540Z,72.70
2023-03-04T07:18:35.900Z,72.20
2023-03-04T07:21:03.770Z,72.50
2023-03-04T07:23:31.576Z,72.41
2023-03-04T07:26:00.209Z,72.22
2023-03-04T07:28:28.475Z,72.17
2023-03-04T07:30:57.938Z,72.05
2023-03-04T07:33:26.118Z,71.83
2023-03-04T07:36:00.488Z,71.94
2023-03-04T07:38:28.801Z,72.20
2023-03-04T07:40:57.596Z,72.28
2023-03-04T07:43:25.569Z,71.97
2023-03-04T07:45:53.567Z,71.82
2023-03-04T07:48:23.417Z,71.62
2023-03-04T07:51:07.443Z,71.55
2023-03-04T07:53:35.857Z,71.54
2023-03-04T07:56:03.871Z,71.59
2023-03-04T07:58:32.089Z,71.52
2023-03-04T08:01:00.034Z,71.66
2023-03-04T08:03:29.831Z,71.29
2023-03-04T08:05:57.765Z,71.43
2023-03-04T08:08:25.543Z,71.45
2023-03-04T08:10:53.373Z,71.60
2023-03-04T08:13:21.345Z,71.05
2023-03-04T08:15:49.250Z,71.10
2023-03-04T08:18:17.126Z,71.82
2023-03-04T08:20:46.749Z,71.46
2023-03-04T08:23:14.579Z,71.14
2023-03-04T08:25:42.973Z,71.11
2023-03-04T08:28:13.063Z,71.43
2023-03-04T08:30:41.424Z,71.38
2023-03-04T08:33:10.130Z,71.50
2023-03-04T08:35:39.382Z,71.36
2023-03-04T08:38:09.599Z,70.98
2023-03-04T08:40:37.348Z,71.11
2023-03-04T08:43:05.212Z,71.23
2023-03-04T08:45:32.987Z,70.58
2023-03-04T08:48:00.776Z,70.89
2023-03-04T08:50:30.121Z,70.68
2023-03-04T08:52:57.906Z,70.57
2023-03-04T08:55:27.069Z,70.71
2023-03-04T08:57:55.056Z,70.47
2023-03-04T09:00:31.083Z,70.58
2023-03-04T09:02:58.873Z,70.73
2023-03-04T09:05:26.670Z,70.77
2023-03-04T09:07:55.477Z,71.14
2023-03-04T09:10:23.258Z,70.97
2023-03-04T09:12:52.661Z,70.77
2023-03-04T09:15:22.374Z,70.68
2023-03-04T09:17:50.171Z,71.22
2023-03-04T09:20:17.961Z,71.01
2023-03-04T09:22:45.969Z,70.76
2023-03-04T09:25:15.850Z,71.06
2023-03-04T09:27:43.775Z,70.96
2023-03-04T09:30:16.674Z,70.98
2023-03-04T09:32:44.488Z,71.05
2023-03-04T09:35:12.281Z,70.76
2023-03-04T09:37:41.629Z,70.89
2023-03-04T09:40:13.164Z,71.10
2023-03-04T09:42:47.469Z,71.26
2023-03-04T09:45:20.287Z,71.08
2023-03-04T09:47:49.159Z,70.90
2023-03-04T09:50:17.174Z,70.82
2023-03-04T09:52:53.914Z,70.89
2023-03-04T09:55:25.238Z,70.94
2023-03-04T09:57:55.459Z,70.63
2023-03-04T10:00:26.333Z,70.74
2023-03-04T10:03:14.100Z,71.05
2023-03-04T10:05:45.805Z,70.89
2023-03-04T10:08:28.856Z,70.84
2023-03-04T10:11:00.800Z,70.56
2023-03-04T10:13:33.252Z,70.60
2023-03-04T10:16:07.129Z,70.58
2023-03-04T10:18:38.051Z,70.56
2023-03-04T10:21:10.479Z,70.85
2023-03-04T10:23:38.246Z,70.73
2023-03-04T10:26:13.875Z,70.72
2023-03-04T10:28:41.965Z,70.52
2023-03-04T10:31:18.488Z,70.52
2023-03-04T10:33:46.254Z,70.34
2023-03-04T10:36:34.273Z,70.36
2023-03-04T10:39:04.873Z,70.14
2023-03-04T10:41:33.291Z,70.29
2023-03-04T10:44:06.887Z,70.46
2023-03-04T10:46:39.218Z,70.28
2023-03-04T10:49:07.214Z,69.86
2023-03-04T10:51:43.831Z,70.13
2023-03-04T10:54:21.850Z,69.92
2023-03-04T10:56:57.762Z,70.17
2023-03-04T10:59:40.575Z,70.05
2023-03-04T11:02:28.450Z,69.96
2023-03-04T11:05:11.263Z,70.21
2023-03-04T11:07:54.479Z,69.89
2023-03-04T11:10:24.869Z,69.73
2023-03-04T11:12:57.069Z,70.08
2023-03-04T11:15:27.485Z,69.75
2023-03-04T11:17:59.738Z,70.07
2023-03-04T11:20:32.212Z,69.89
2023-03-04T11:23:04.484Z,70.04
2023-03-04T11:25:34.949Z,70.28
2023-03-04T11:28:05.265Z,69.91
2023-03-04T11:30:40.786Z,69.97
2023-03-04T11:33:17.590Z,70.07
2023-03-04T11:35:54.901Z,70.20
2023-03-04T11:38:26.122Z,69.86
2023-03-04T11:40:55.576Z,70.16
2023-03-04T11:43:26.493Z,70.10
2023-03-04T11:46:08.220Z,69.68
2023-03-04T11:48:47.164Z,70.07
2023-03-04T11:51:21.470Z,70.26
2023-03-04T11:53:56.739Z,70.12
2023-03-04T11:56:31.974Z,70.17
2023-03-04T11:59:37.987Z,69.82
2023-03-04T12:02:19.410Z,70.14
2023-03-04T12:05:21.632Z,70.07
2023-03-04T12:08:14.073Z,70.30
2023-03-04T12:10:46.350Z,70.39
2023-03-04T12:13:28.399Z,70.12
2023-03-04T12:16:02.176Z,70.56
2023-03-04T12:18:39.848Z,70.65
2023-03-04T12:21:19.220Z,70.88
2023-03-04T12:24:13.088Z,70.84
2023-03-04T12:26:44.160Z,71.05
2023-03-04T12:29:16.102Z,71.17
2023-03-04T12:31:45.199Z,71.20
2023-03-04T12:34:35.134Z,71.45
2023-03-04T12:37:25.717Z,71.47
2023-03-04T12:40:09.252Z,71.29
2023-03-04T12:42:42.808Z,71.90
2023-03-04T12:45:21.662Z,72.18
2023-03-04T12:47:57.669Z,72.11
2023-03-04T12:50:32.861Z,72.17
2023-03-04T12:53:07.853Z,72.32
2023-03-04T12:55:39.385Z,72.38
2023-03-04T12:58:08.112Z,72.75
2023-03-04T13:00:45.178Z,72.60
2023-03-04T13:03:16.610Z,72.56
2023-03-04T13:05:58.659Z,72.94
2023-03-04T13:08:32.712Z,73.13
2023-03-04T13:11:05.018Z,73.35
2023-03-04T13:13:38.934Z,73.49
2023-03-04T13:16:08.740Z,73.67
2023-03-04T13:18:39.375Z,73.84
2023-03-04T13:21:22.271Z,73.69
2023-03-04T13:23:51.763Z,73.84
2023-03-04T13:26:25.278Z,74.33
2023-03-04T13:28:55.164Z,74.33
2023-03-04T13:31:30.178Z,74.53
2023-03-04T13:34:03.205Z,74.40
2023-03-04T13:37:26.479Z,74.41
2023-03-04T13:40:28.402Z,74.90
2023-03-04T13:43:27.334Z,74.84
2023-03-04T13:45:55.580Z,74.92
2023-03-04T13:48:32.813Z,74.92
2023-03-04T13:51:01.151Z,75.11
2023-03-04T13:53:42.438Z,74.95
2023-03-04T13:56:27.084Z,75.15
2023-03-04T13:59:13.701Z,75.45
2023-03-04T14:01:59.895Z,75.57
2023-03-04T14:04:36.221Z,75.53
2023-03-04T14:07:19.835Z,75.46
2023-03-04T14:09:56.408Z,75.41
2023-03-04T14:12:24.350Z,75.38
2023-03-04T14:14:55.193Z,75.31
2023-03-04T14:17:26.378Z,75.24
2023-03-04T14:19:54.326Z,75.34
2023-03-04T14:22:25.397Z,75.01
2023-03-04T14:25:01.343Z,74.66
2023-03-04T14:27:30.328Z,74.34
2023-03-04T14:32:59.682Z,73.84
2023-03-04T14:35:30.274Z,73.84
2023-03-04T14:38:02.608Z,73.51
2023-03-04T14:40:30.701Z,73.25
2023-03-04T14:43:01.934Z,73.22
2023-03-04T14:45:32.511Z,73.36
2023-03-04T14:48:02.967Z,73.13
2023-03-04T14:50:30.842Z,73.18
2023-03-04T14:53:18.785Z,73.17
2023-03-04T14:56:00.822Z,73.20
2023-03-04T14:58:29.756Z,72.83
2023-03-04T15:01:16.382Z,72.82
2023-03-04T15:03:45.830Z,72.91
2023-03-04T15:06:18.253Z,72.73
2023-03-04T15:08:47.938Z,72.66
2023-03-04T15:11:24.229Z,72.51
2023-03-04T15:13:54.883Z,72.70
2023-03-04T15:16:26.621Z,72.91
2023-03-04T15:18:55.547Z,72.90
2023-03-04T15:21:33.777Z,73.06
2023-03-04T15:24:03.329Z,74.13
2023-03-04T15:26:31.662Z,74.20
2023-03-04T15:28:59.796Z,74.76
2023-03-04T15:31:30.325Z,74.94
2023-03-04T15:33:58.110Z,75.36
2023-03-04T15:36:26.271Z,76.02
2023-03-04T15:38:54.471Z,75.87
2023-03-04T15:41:24.875Z,76.75
2023-03-04T15:43:53.649Z,77.24
2023-03-04T15:46:22.038Z,77.84
2023-03-04T15:48:51.407Z,78.28
2023-03-04T15:51:22.194Z,78.88
2023-03-04T15:53:52.183Z,79.26
2023-03-04T15:56:21.850Z,79.33
2023-03-04T15:58:54.966Z,80.58
2023-03-04T16:01:23.568Z,80.60
2023-03-04T16:03:53.977Z,81.71
2023-03-04T16:06:23.500Z,81.80
2023-03-04T16:08:53.162Z,82.06
2023-03-04T16:11:22.711Z,82.68
2023-03-04T16:13:51.071Z,81.96
2023-03-04T16:16:19.564Z,82.48
2023-03-04T16:18:47.362Z,82.74
2023-03-04T16:21:18.706Z,82.25
2023-03-04T16:23:48.791Z,82.48
2023-03-04T16:26:26.910Z,81.98
2023-03-04T16:28:55.955Z,81.93
2023-03-04T16:31:23.995Z,81.57
2023-03-04T16:33:51.807Z,81.65
2023-03-04T16:36:24.467Z,80.99
2023-03-04T16:38:52.985Z,80.86
2023-03-04T16:41:24.428Z,80.76
2023-03-04T16:43:52.240Z,80.31
2023-03-04T16:46:20.161Z,80.33
2023-03-04T16:48:48.712Z,80.15
2023-03-04T16:51:18.347Z,79.90
2023-03-04T16:53:55.060Z,79.55
2023-03-04T16:56:24.173Z,79.16
2023-03-04T16:58:54.082Z,79.11
2023-03-04T17:01:24.405Z,79.02
2023-03-04T17:03:52.789Z,79.33
2023-03-04T17:06:20.779Z,78.51
2023-03-04T17:08:50.312Z,78.59
2023-03-04T17:11:22.223Z,78.40
2023-03-04T17:13:50.132Z,78.28
2023-03-04T17:16:19.345Z,78.30
2023-03-04T17:18:47.310Z,77.98
2023-03-04T17:21:17.194Z,78.22
2023-03-04T17:23:46.727Z,77.89
2023-03-04T17:26:16.740Z,77.80
2023-03-04T17:28:44.616Z,77.61
2023-03-04T17:31:14.628Z,77.54
2023-03-04T17:33:43.755Z,77.13
2023-03-04T17:36:12.328Z,77.01
2023-03-04T17:38:40.755Z,77.15
2023-03-04T17:41:13.384Z,76.82
2023-03-04T17:43:44.327Z,76.89
2023-03-04T17:46:14.674Z,76.49
2023-03-04T17:48:43.258Z,76.38
2023-03-04T17:51:11.654Z,76.47
2023-03-04T17:53:39.950Z,76.67
2023-03-04T17:56:09.894Z,76.32
2023-03-04T17:58:38.006Z,76.61
2023-03-04T18:01:11.237Z,76.73
2023-03-04T18:03:39.039Z,76.75
2023-03-04T18:06:07.182Z,76.92
2023-03-04T18:08:34.990Z,76.73
2023-03-04T18:11:02.750Z,76.73
2023-03-04T18:13:33.442Z,76.57
2023-03-04T18:16:01.348Z,76.15
2023-03-04T18:18:30.567Z,76.36
2023-03-04T18:20:59.462Z,76.03
2023-03-04T18:23:27.867Z,75.80
2023-03-04T18:25:56.397Z,76.85
2023-03-04T18:28:24.300Z,77.17
2023-03-04T18:30:52.236Z,77.26
2023-03-04T18:33:21.306Z,77.40
2023-03-04T18:35:50.681Z,77.27
2023-03-04T18:38:18.498Z,77.12
2023-03-04T18:40:47.430Z,77.24
2023-03-04T18:43:15.168Z,77.26
2023-03-04T18:45:42.935Z,77.60
2023-03-04T18:48:11.495Z,77.40
2023-03-04T18:50:39.258Z,77.63
2023-03-04T18:53:08.408Z,77.59
2023-03-04T18:55:37.611Z,77.11
2023-03-04T18:58:05.538Z,76.75
2023-03-04T19:00:33.410Z,76.76
2023-03-04T19:03:03.907Z,77.15
2023-03-04T19:05:36.304Z,76.89
2023-03-04T19:08:04.929Z,77.21
2023-03-04T19:10:34.223Z,77.29
2023-03-04T19:13:02.698Z,77.31
2023-03-04T19:15:36.170Z,77.34
2023-03-04T19:18:05.609Z,77.42
2023-03-04T19:20:33.481Z,72.59
2023-03-04T19:23:01.319Z,70.12
2023-03-04T19:25:30.237Z,67.97
2023-03-04T19:28:00.971Z,64.93
2023-03-04T19:30:29.160Z,64.43
2023-03-04T19:32:57.407Z,63.25
2023-03-04T19:35:25.241Z,61.13
2023-03-04T19:37:53.115Z,60.73
2023-03-04T19:40:23.256Z,60.83
2023-03-04T19:42:51.230Z,61.81
2023-03-04T19:45:20.536Z,61.91
2023-03-04T19:47:50.586Z,60.85
2023-03-04T19:50:19.160Z,59.91
2023-03-04T19:52:47.074Z,60.76
2023-03-04T19:55:16.110Z,60.97
2023-03-04T19:57:44.021Z,60.50
2023-03-04T20:00:13.417Z,61.12
2023-03-04T20:02:46.080Z,60.85
2023-03-04T20:05:13.909Z,59.06
2023-03-04T20:07:41.876Z,59.75
2023-03-04T20:10:13.721Z,59.20
2023-03-04T20:12:42.261Z,60.43
2023-03-04T20:15:10.570Z,60.29
2023-03-04T20:17:40.905Z,60.14
2023-03-04T20:20:12.489Z,60.36
2023-03-04T20:22:40.349Z,59.99
2023-03-04T20:25:17.638Z,59.63
2023-03-04T20:27:45.464Z,59.26
2023-03-04T20:30:14.363Z,60.06
2023-03-04T20:32:42.691Z,60.22
2023-03-04T20:35:14.985Z,60.23
2023-03-04T20:37:43.198Z,60.31
2023-03-04T20:40:12.733Z,60.74
2023-03-04T20:42:41.914Z,60.45
2023-03-04T20:45:10.489Z,60.80
2023-03-04T20:47:39.691Z,60.71
2023-03-04T20:50:16.559Z,60.45
2023-03-04T20:52:47.002Z,59.69
2023-03-04T20:55:15.020Z,60.17
2023-03-04T20:57:44.589Z,60.01
2023-03-04T21:00:13.969Z,59.46
2023-03-04T21:02:41.988Z,59.59
2023-03-04T21:05:11.707Z,60.12
2023-03-04T21:07:40.082Z,59.67
2023-03-04T21:10:10.292Z,60.02
2023-03-04T21:12:38.146Z,59.54
2023-03-04T21:15:07.374Z,59.46
2023-03-04T21:17:35.372Z,59.97
2023-03-04T21:20:06.837Z,59.84
2023-03-04T21:22:34.926Z,60.25
2023-03-04T21:25:02.801Z,60.85
2023-03-04T21:27:32.031Z,60.55
2023-03-04T21:30:00.175Z,60.24
2023-03-04T21:32:29.217Z,60.14
2023-03-04T21:34:57.318Z,59.36
2023-03-04T21:37:26.497Z,58.92
2023-03-04T21:39:54.429Z,59.96
2023-03-04T21:42:22.506Z,59.11
2023-03-04T21:44:52.288Z,58.47
2023-03-04T21:47:37.732Z,59.55
2023-03-04T21:50:07.661Z,58.77
2023-03-04T21:52:35.466Z,58.61
2023-03-04T21:55:03.372Z,58.12
2023-03-04T21:57:33.437Z,58.51
2023-03-04T22:00:03.733Z,58.62
2023-03-04T22:02:33.129Z,59.16
2023-03-04T22:05:00.875Z,59.20
2023-03-04T22:07:30.717Z,59.39
2023-03-04T22:09:59.742Z,58.96
2023-03-04T22:12:27.653Z,58.38
2023-03-04T22:14:55.552Z,58.28
2023-03-04T22:17:31.831Z,58.61
2023-03-04T22:19:59.702Z,58.64
2023-03-04T22:22:30.488Z,59.06
2023-03-04T22:25:00.161Z,60.05
2023-03-04T22:27:33.048Z,60.57
2023-03-04T22:30:03.776Z,60.28
2023-03-04T22:32:34.878Z,60.36
2023-03-04T22:35:02.746Z,60.67
2023-03-04T22:37:30.665Z,60.62
2023-03-04T22:39:58.943Z,60.67
2023-03-04T22:42:26.820Z,60.90
2023-03-04T22:44:55.658Z,60.81
2023-03-04T22:47:24.021Z,61.10
2023-03-04T22:49:53.248Z,61.15
2023-03-04T22:52:21.022Z,61.04
2023-03-04T22:54:51.493Z,60.83
2023-03-04T22:57:20.074Z,60.77
2023-03-04T22:59:49.140Z,60.85
2023-03-04T23:02:17.034Z,61.05
2023-03-04T23:04:54.107Z,61.19
2023-03-04T23:07:23.358Z,61.07
2023-03-04T23:09:51.259Z,61.07
2023-03-04T23:12:19.286Z,61.10
2023-03-04T23:14:47.196Z,61.21
2023-03-04T23:17:19.994Z,61.13
2023-03-04T23:19:51.201Z,61.43
2023-03-04T23:22:19.013Z,61.89
2023-03-04T23:24:48.876Z,62.49
2023-03-04T23:27:16.920Z,62.84
2023-03-04T23:29:44.726Z,62.76
2023-03-04T23:32:12.780Z,63.15
2023-03-04T23:34:40.779Z,63.33
2023-03-04T23:37:08.799Z,63.42
2023-03-04T23:39:36.665Z,64.24
2023-03-04T23:42:06.216Z,63.86
2023-03-04T23:44:34.085Z,63.75
2023-03-04T23:47:01.883Z,63.75
2023-03-04T23:49:29.925Z,63.62
2023-03-04T23:51:57.762Z,63.32
2023-03-04T23:54:25.615Z,63.90
2023-03-04T23:56:53.734Z,63.91
2023-03-04T23:59:22.980Z,63.84
